Time;durP1;ratioP1;P1;durP2;ratioP2;P2;SDS_P1;SDS_P2;PMS_P1;PMS_P2;Temp;Humidity;BMP_temperature;BMP_pressure;BME280_temperature;BME280_humidity;BME280_pressure;Samples;Min_cycle;Max_cycle;Signal;HPM_P1;HPM_P2
2023/12/04 00:02:12;;;;;;;;;;;;;;;;;;5126608;27;19924;-62
2023/12/04 00:04:40;;;;;;;;;;;;;;;;;;5132691;27;20057;-66
2023/12/04 00:07:06;;;;;;;;;;;;;;;;;;5131945;27;19981;-60
2023/12/04 00:09:33;;;;;;;;;;;;;;;;;;5128513;27;19974;-62
2023/12/04 00:11:59;;;;;;;;;;;;;;;;;;5128178;27;19971;-61
2023/12/04 00:14:25;;;;;;;;;;;;;;;;;;5124936;27;19978;-60
2023/12/04 00:16:52;;;;;;;;;;;;;;;;;;5120268;27;20010;-60
2023/12/04 00:19:18;;;;;;;;;;;;;;;;;;5137582;27;20365;-60
2023/12/04 00:21:46;;;;;;;;;;;;;;;;;;5136600;27;20378;-62
2023/12/04 00:24:13;;;;;;;;;;;;;;;;;;5129461;27;19924;-61
2023/12/04 00:26:40;;;;;;;;;;;;;;;;;;5135231;27;19955;-61
2023/12/04 00:29:07;;;;;;;;;;;;;;;;;;5137069;27;19924;-62
2023/12/04 00:31:33;;;;;;;;;;;;;;;;;;5128646;27;19962;-62
2023/12/04 00:34:00;;;;;;;;;;;;;;;;;;5135641;27;19984;-62
2023/12/04 00:36:27;;;;;;;;;;;;;;;;;;5126499;27;19924;-59
2023/12/04 00:38:55;;;;;;;;;;;;;;;;;;5126685;27;20386;-62
2023/12/04 00:41:20;;;;;;;;;;;;;;;;;;5125466;27;19980;-61
2023/12/04 00:43:47;;;;;;;;;;;;;;;;;;5129570;27;19923;-61
2023/12/04 00:46:13;;;;;;;;;;;;;;;;;;5129910;27;19970;-62
2023/12/04 00:48:40;;;;;;;;;;;;;;;;;;5134754;27;19972;-60
2023/12/04 00:51:07;;;;;;;;;;;;;;;;;;5137880;27;20410;-62
2023/12/04 00:53:33;;;;;;;;;;;;;;;;;;5129429;27;19924;-60
2023/12/04 00:56:01;;;;;;;;;;;;;;;;;;5132937;27;20060;-62
2023/12/04 00:58:27;;;;;;;;;;;;;;;;;;5133335;27;19971;-61
2023/12/04 01:00:55;;;;;;;;;;;;;;;;;;5128648;27;20447;-62
2023/12/04 01:03:21;;;;;;;;;;;;;;;;;;5136118;27;19988;-60
2023/12/04 01:05:48;;;;;;;;;;;;;;;;;;5132050;27;19966;-60
2023/12/04 01:08:14;;;;;;;;;;;;;;;;;;5136481;27;19962;-62
2023/12/04 01:10:41;;;;;;;;;;;;;;;;;;5136055;27;19974;-62
2023/12/04 01:13:08;;;;;;;;;;;;;;;;;;5131528;27;20438;-61
2023/12/04 01:15:36;;;;;;;;;;;;;;;;;;5121229;27;19969;-62
2023/12/04 01:18:02;;;;;;;;;;;;;;;;;;5136152;27;19931;-61
2023/12/04 01:20:29;;;;;;;;;;;;;;;;;;5136100;27;19986;-61
2023/12/04 01:22:55;;;;;;;;;;;;;;;;;;5135687;27;20010;-61
2023/12/04 01:25:22;;;;;;;;;;;;;;;;;;5135659;27;20338;-61
2023/12/04 01:27:48;;;;;;;;;;;;;;;;;;5135758;27;19967;-61
2023/12/04 01:30:16;;;;;;;;;;;;;;;;;;5135683;27;20001;-61
2023/12/04 01:32:43;;;;;;;;;;;;;;;;;;5141702;27;20014;-62
2023/12/04 01:35:09;;;;;;;;;;;;;;;;;;5131386;27;20007;-61
2023/12/04 01:37:37;;;;;;;;;;;;;;;;;;5135521;27;19946;-61
2023/12/04 01:40:06;;;;;;;;;;;;;;;;;;5130600;27;19974;-61
2023/12/04 01:42:33;;;;;;;;;;;;;;;;;;5135196;27;20547;-62
2023/12/04 01:44:59;;;;;;;;;;;;;;;;;;5135196;27;20018;-61
2023/12/04 01:47:27;;;;;;;;;;;;;;;;;;5135408;27;20006;-62
2023/12/04 01:49:53;;;;;;;;;;;;;;;;;;5127584;27;20056;-61
2023/12/04 01:52:20;;;;;;;;;;;;;;;;;;5130819;27;20351;-60
2023/12/04 01:54:46;;;;;;;;;;;;;;;;;;5135217;27;20002;-60
2023/12/04 01:57:13;;;;;;;;;;;;;;;;;;5134685;27;20019;-60
2023/12/04 01:59:39;;;;;;;;;;;;;;;;;;5135354;27;20018;-61
2023/12/04 02:02:06;;;;;;;;;;;;;;;;;;5126647;27;19967;-61
2023/12/04 02:04:34;;;;;;;;;;;;;;;;;;5134840;27;19934;-62
2023/12/04 02:07:01;;;;;;;;;;;;;;;;;;5135250;27;19969;-61
2023/12/04 02:09:29;;;;;;;;;;;;;;;;;;5133948;27;19930;-60
2023/12/04 02:11:55;;;;;;;;;;;;;;;;;;5129619;27;20320;-60
2023/12/04 02:14:21;;;;;;;;;;;;;;;;;;5134745;27;20018;-62
2023/12/04 02:16:49;;;;;;;;;;;;;;;;;;5134833;27;19971;-62
2023/12/04 02:19:15;;;;;;;;;;;;;;;;;;5134695;27;20019;-61
2023/12/04 02:21:43;;;;;;;;;;;;;;;;;;5134582;27;20022;-61
2023/12/04 02:24:11;;;;;;;;;;;;;;;;;;5134458;27;20026;-62
2023/12/04 02:26:40;;;;;;;;;;;;;;;;;;5134549;27;20330;-61
2023/12/04 02:29:08;;;;;;;;;;;;;;;;;;5134678;27;19928;-60
2023/12/04 02:31:35;;;;;;;;;;;;;;;;;;5133827;27;19923;-60
2023/12/04 02:34:03;;;;;;;;;;;;;;;;;;5127100;27;19966;-61
2023/12/04 02:36:30;;;;;;;;;;;;;;;;;;5122835;27;20018;-61
2023/12/04 02:38:57;;;;;;;;;;;;;;;;;;5134135;27;20366;-61
2023/12/04 02:41:25;;;;;;;;;;;;;;;;;;5132498;27;20547;-62
2023/12/04 02:43:51;;;;;;;;;;;;;;;;;;5126280;27;19993;-61
2023/12/04 02:46:18;;;;;;;;;;;;;;;;;;5133248;27;19966;-62
2023/12/04 02:48:44;;;;;;;;;;;;;;;;;;5134329;27;19923;-62
2023/12/04 02:51:11;;;;;;;;;;;;;;;;;;5134180;27;19962;-61
2023/12/04 02:53:38;;;;;;;;;;;;;;;;;;5128628;27;19959;-62
2023/12/04 02:56:04;;;;;;;;;;;;;;;;;;5130623;27;20302;-62
2023/12/04 02:58:34;;;;;;;;;;;;;;;;;;5117922;27;19927;-62
2023/12/04 03:01:00;;;;;;;;;;;;;;;;;;5134077;27;19923;-62
2023/12/04 03:03:27;;;;;;;;;;;;;;;;;;5133823;27;19963;-62
2023/12/04 03:05:53;;;;;;;;;;;;;;;;;;5133649;27;19970;-60
2023/12/04 03:08:19;;;;;;;;;;;;;;;;;;5133717;27;19927;-62
2023/12/04 03:10:46;;;;;;;;;;;;;;;;;;5133852;27;19988;-62
2023/12/04 03:13:12;;;;;;;;;;;;;;;;;;5130934;27;19966;-61
2023/12/04 03:15:40;;;;;;;;;;;;;;;;;;5127270;27;20391;-67
2023/12/04 03:18:07;;;;;;;;;;;;;;;;;;5133713;27;20418;-62
2023/12/04 03:20:33;;;;;;;;;;;;;;;;;;5133626;27;20426;-61
2023/12/04 03:23:00;;;;;;;;;;;;;;;;;;5128683;27;19924;-62
2023/12/04 03:25:26;;;;;;;;;;;;;;;;;;5133239;27;19930;-62
2023/12/04 03:27:53;;;;;;;;;;;;;;;;;;5131494;27;20011;-62
2023/12/04 03:30:20;;;;;;;;;;;;;;;;;;5132792;27;20422;-62
2023/12/04 03:32:48;;;;;;;;;;;;;;;;;;5135544;27;20288;-61
2023/12/04 03:35:14;;;;;;;;;;;;;;;;;;5124607;27;20344;-62
2023/12/04 03:37:41;;;;;;;;;;;;;;;;;;5129844;27;19923;-62
2023/12/04 03:40:08;;;;;;;;;;;;;;;;;;5126852;27;20007;-62
2023/12/04 03:42:34;;;;;;;;;;;;;;;;;;5122078;27;19968;-61
2023/12/04 03:45:01;;;;;;;;;;;;;;;;;;5121165;27;20391;-62
2023/12/04 03:47:27;;;;;;;;;;;;;;;;;;5122442;27;19924;-62
2023/12/04 03:49:55;;;;;;;;;;;;;;;;;;5121852;27;20042;-62
2023/12/04 03:52:22;;;;;;;;;;;;;;;;;;5124579;28;19923;-61
2023/12/04 03:54:48;;;;;;;;;;;;;;;;;;5124859;28;20643;-62
2023/12/04 03:57:15;;;;;;;;;;;;;;;;;;5116162;28;20383;-62
2023/12/04 03:59:41;;;;;;;;;;;;;;;;;;5125979;28;20022;-62
2023/12/04 04:02:08;;;;;;;;;;;;;;;;;;5132883;28;19923;-62
2023/12/04 04:04:34;;;;;;;;;;;;;;;;;;5117082;28;20370;-63
2023/12/04 04:07:02;;;;;;;;;;;;;;;;;;5117324;27;20014;-62
2023/12/04 04:09:29;;;;;;;;;;;;;;;;;;5116309;28;19924;-62
2023/12/04 04:11:55;;;;;;;;;;;;;;;;;;5121000;28;20216;-62
2023/12/04 04:14:23;;;;;;;;;;;;;;;;;;5120873;28;19971;-61
2023/12/04 04:16:49;;;;;;;;;;;;;;;;;;5120770;28;19923;-62
2023/12/04 04:19:16;;;;;;;;;;;;;;;;;;5123425;28;20026;-62
2023/12/04 04:21:42;;;;;;;;;;;;;;;;;;5132911;28;20336;-62
2023/12/04 04:24:10;;;;;;;;;;;;;;;;;;5124338;28;19971;-62
2023/12/04 04:26:37;;;;;;;;;;;;;;;;;;5127306;28;19976;-62
2023/12/04 04:29:03;;;;;;;;;;;;;;;;;;5126712;28;19924;-61
2023/12/04 04:31:30;;;;;;;;;;;;;;;;;;5121656;28;20015;-62
2023/12/04 04:33:56;;;;;;;;;;;;;;;;;;5128028;28;19962;-61
2023/12/04 04:36:23;;;;;;;;;;;;;;;;;;5115521;28;20010;-61
2023/12/04 04:38:49;;;;;;;;;;;;;;;;;;5127960;28;19992;-59
2023/12/04 04:41:17;;;;;;;;;;;;;;;;;;5132835;28;19993;-57
2023/12/04 04:43:43;;;;;;;;;;;;;;;;;;5132389;27;20013;-60
2023/12/04 04:46:10;;;;;;;;;;;;;;;;;;5136519;27;20030;-55
2023/12/04 04:48:37;;;;;;;;;;;;;;;;;;5136214;27;20018;-59
2023/12/04 04:51:03;;;;;;;;;;;;;;;;;;5136441;27;19930;-59
2023/12/04 04:53:30;;;;;;;;;;;;;;;;;;5136576;27;19983;-57
2023/12/04 04:55:56;;;;;;;;;;;;;;;;;;5136299;27;19923;-58
2023/12/04 04:58:24;;;;;;;;;;;;;;;;;;5136131;27;20017;-58
2023/12/04 05:00:51;;;;;;;;;;;;;;;;;;5135914;27;19977;-55
2023/12/04 05:03:17;;;;;;;;;;;;;;;;;;5136049;27;19968;-58
2023/12/04 05:05:44;;;;;;;;;;;;;;;;;;5135881;27;19962;-58
2023/12/04 05:08:10;;;;;;;;;;;;;;;;;;5126009;27;19984;-58
2023/12/04 05:10:38;;;;;;;;;;;;;;;;;;5133571;27;19970;-58
2023/12/04 05:13:05;;;;;;;;;;;;;;;;;;5135841;27;19982;-57
2023/12/04 05:15:32;;;;;;;;;;;;;;;;;;5136046;27;20018;-59
2023/12/04 05:17:59;;;;;;;;;;;;;;;;;;5136242;27;19923;-58
2023/12/04 05:20:26;;;;;;;;;;;;;;;;;;5135877;27;20328;-58
2023/12/04 05:22:53;;;;;;;;;;;;;;;;;;5127816;27;20383;-58
2023/12/04 05:25:19;;;;;;;;;;;;;;;;;;5124165;27;20023;-58
2023/12/04 05:27:46;;;;;;;;;;;;;;;;;;5130489;27;19963;-58
2023/12/04 05:30:13;;;;;;;;;;;;;;;;;;5121650;27;20295;-59
2023/12/04 05:32:41;;;;;;;;;;;;;;;;;;5135441;27;19971;-58
2023/12/04 05:35:07;;;;;;;;;;;;;;;;;;5135700;27;20417;-58
2023/12/04 05:37:34;;;;;;;;;;;;;;;;;;5135945;27;20538;-58
2023/12/04 05:40:00;;;;;;;;;;;;;;;;;;5135528;27;19955;-58
2023/12/04 05:42:27;;;;;;;;;;;;;;;;;;5135378;27;19974;-58
2023/12/04 05:44:55;;;;;;;;;;;;;;;;;;5135067;27;19963;-58
2023/12/04 05:47:21;;;;;;;;;;;;;;;;;;5124066;27;20015;-58
2023/12/04 05:49:49;;;;;;;;;;;;;;;;;;5128208;27;19992;-55
2023/12/04 05:52:16;;;;;;;;;;;;;;;;;;5127052;27;20017;-58
2023/12/04 05:54:42;;;;;;;;;;;;;;;;;;5114585;28;20367;-58
2023/12/04 05:57:08;;;;;;;;;;;;;;;;;;5130392;27;19923;-61
2023/12/04 05:59:35;;;;;;;;;;;;;;;;;;5128740;27;19955;-57
2023/12/04 06:02:02;;;;;;;;;;;;;;;;;;5134167;27;19930;-57
2023/12/04 06:04:28;;;;;;;;;;;;;;;;;;5131573;27;19981;-58
2023/12/04 06:06:56;;;;;;;;;;;;;;;;;;5134055;27;19967;-58
2023/12/04 06:09:23;;;;;;;;;;;;;;;;;;5133221;27;20354;-58
2023/12/04 06:11:49;;;;;;;;;;;;;;;;;;5133883;27;20018;-58
2023/12/04 06:14:16;;;;;;;;;;;;;;;;;;5123899;27;19970;-58
2023/12/04 06:16:42;;;;;;;;;;;;;;;;;;5128643;27;20386;-57
2023/12/04 06:19:09;;;;;;;;;;;;;;;;;;5131706;27;19932;-60
2023/12/04 06:21:35;;;;;;;;;;;;;;;;;;5128726;27;20022;-58
2023/12/04 06:24:03;;;;;;;;;;;;;;;;;;5131040;27;20034;-57
2023/12/04 06:26:30;;;;;;;;;;;;;;;;;;5130028;27;19978;-58
2023/12/04 06:28:57;;;;;;;;;;;;;;;;;;5118456;27;19967;-59
2023/12/04 06:31:23;;;;;;;;;;;;;;;;;;5131077;27;20015;-58
2023/12/04 06:33:50;;;;;;;;;;;;;;;;;;5129414;27;19962;-58
2023/12/04 06:36:18;;;;;;;;;;;;;;;;;;5134435;27;20333;-57
2023/12/04 06:38:47;;;;;;;;;;;;;;;;;;5134140;27;20434;-58
2023/12/04 06:41:17;;;;;;;;;;;;;;;;;;5132058;27;20011;-58
2023/12/04 06:43:44;;;;;;;;;;;;;;;;;;5122214;27;19978;-59
2023/12/04 06:46:11;;;;;;;;;;;;;;;;;;5132834;27;20381;-59
2023/12/04 06:48:38;;;;;;;;;;;;;;;;;;5130384;27;19924;-59
2023/12/04 06:51:05;;;;;;;;;;;;;;;;;;5133526;27;19991;-57
2023/12/04 06:53:31;;;;;;;;;;;;;;;;;;5117976;27;19966;-59
2023/12/04 06:55:58;;;;;;;;;;;;;;;;;;5128160;27;20011;-58
2023/12/04 06:58:26;;;;;;;;;;;;;;;;;;5126846;27;19924;-62
2023/12/04 07:00:53;;;;;;;;;;;;;;;;;;5133662;27;20097;-63
2023/12/04 07:03:19;;;;;;;;;;;;;;;;;;5133649;27;20370;-62
2023/12/04 07:05:46;;;;;;;;;;;;;;;;;;5133521;27;20354;-60
2023/12/04 07:08:12;;;;;;;;;;;;;;;;;;5133345;27;20007;-63
2023/12/04 07:10:39;;;;;;;;;;;;;;;;;;5133296;27;20425;-62
2023/12/04 07:13:06;;;;;;;;;;;;;;;;;;5133391;27;20019;-60
2023/12/04 07:15:34;;;;;;;;;;;;;;;;;;5127053;27;20398;-60
2023/12/04 07:18:00;;;;;;;;;;;;;;;;;;5129380;27;20049;-62
2023/12/04 07:20:27;;;;;;;;;;;;;;;;;;5132834;27;20010;-62
2023/12/04 07:22:53;;;;;;;;;;;;;;;;;;5126447;27;19967;-61
2023/12/04 07:25:20;;;;;;;;;;;;;;;;;;5132600;27;20578;-61
2023/12/04 07:27:47;;;;;;;;;;;;;;;;;;5132708;27;20360;-63
2023/12/04 07:30:14;;;;;;;;;;;;;;;;;;5132156;27;20021;-62
2023/12/04 07:32:41;;;;;;;;;;;;;;;;;;5122596;27;20341;-62
2023/12/04 07:35:08;;;;;;;;;;;;;;;;;;5126663;27;20006;-62
2023/12/04 07:37:34;;;;;;;;;;;;;;;;;;5123093;27;20011;-60
2023/12/04 07:40:01;;;;;;;;;;;;;;;;;;5133210;27;20438;-63
2023/12/04 07:42:27;;;;;;;;;;;;;;;;;;5120673;27;20275;-62
2023/12/04 07:44:54;;;;;;;;;;;;;;;;;;5119404;27;20031;-62
2023/12/04 07:47:20;;;;;;;;;;;;;;;;;;5121217;27;20037;-62
2023/12/04 07:49:48;;;;;;;;;;;;;;;;;;5125011;27;19974;-61
2023/12/04 07:52:15;;;;;;;;;;;;;;;;;;5121415;27;20369;-60
2023/12/04 07:54:41;;;;;;;;;;;;;;;;;;5119432;28;20001;-60
2023/12/04 07:57:08;;;;;;;;;;;;;;;;;;5130192;28;20014;-62
2023/12/04 07:59:34;;;;;;;;;;;;;;;;;;5131681;28;19923;-61
2023/12/04 08:02:01;;;;;;;;;;;;;;;;;;5132712;28;20309;-62
2023/12/04 08:04:28;;;;;;;;;;;;;;;;;;5132915;28;19931;-61
2023/12/04 08:06:56;;;;;;;;;;;;;;;;;;5124389;28;19923;-62
2023/12/04 08:09:22;;;;;;;;;;;;;;;;;;5132954;28;19923;-61
2023/12/04 08:11:49;;;;;;;;;;;;;;;;;;5121319;28;20010;-64
2023/12/04 08:14:16;;;;;;;;;;;;;;;;;;5117957;27;20006;-62
2023/12/04 08:16:42;;;;;;;;;;;;;;;;;;5118535;28;19923;-61
2023/12/04 08:19:09;;;;;;;;;;;;;;;;;;5129838;27;20272;-61
2023/12/04 08:21:35;;;;;;;;;;;;;;;;;;5122623;27;20352;-62
2023/12/04 08:24:03;;;;;;;;;;;;;;;;;;5125251;27;20038;-60
2023/12/04 08:26:29;;;;;;;;;;;;;;;;;;5124265;27;20010;-62
2023/12/04 08:28:56;;;;;;;;;;;;;;;;;;5133402;27;20007;-65
2023/12/04 08:31:23;;;;;;;;;;;;;;;;;;5123387;27;20310;-66
2023/12/04 08:33:49;;;;;;;;;;;;;;;;;;5119105;27;19924;-65
2023/12/04 08:36:16;;;;;;;;;;;;;;;;;;5122396;27;20369;-63
2023/12/04 08:38:47;;;;;;;;;;;;;;;;;;5119471;27;20551;-61
2023/12/04 08:41:21;;;;;;;;;;;;;;;;;;5122426;27;19969;-61
2023/12/04 08:43:47;;;;;;;;;;;;;;;;;;5125132;27;20390;-62
2023/12/04 08:46:14;;;;;;;;;;;;;;;;;;5122677;27;19931;-62
2023/12/04 08:48:41;;;;;;;;;;;;;;;;;;5120486;27;19927;-62
2023/12/04 08:51:08;;;;;;;;;;;;;;;;;;5131489;27;19990;-59
2023/12/04 08:53:35;;;;;;;;;;;;;;;;;;5127237;27;19927;-62
2023/12/04 08:56:02;;;;;;;;;;;;;;;;;;5121716;27;20443;-61
2023/12/04 08:58:30;;;;;;;;;;;;;;;;;;5123659;27;19977;-60
2023/12/04 09:00:56;;;;;;;;;;;;;;;;;;5124359;27;20451;-61
2023/12/04 09:03:23;;;;;;;;;;;;;;;;;;5129272;27;20432;-61
2023/12/04 09:05:51;;;;;;;;;;;;;;;;;;5126609;27;20034;-61
2023/12/04 09:08:18;;;;;;;;;;;;;;;;;;5131100;27;20386;-61
2023/12/04 09:10:45;;;;;;;;;;;;;;;;;;5131893;27;19996;-60
2023/12/04 09:13:12;;;;;;;;;;;;;;;;;;5133289;27;19975;-60
2023/12/04 09:15:40;;;;;;;;;;;;;;;;;;5133241;27;20002;-63
2023/12/04 09:18:06;;;;;;;;;;;;;;;;;;5125377;27;19969;-60
2023/12/04 09:20:32;;;;;;;;;;;;;;;;;;5133589;27;19982;-61
2023/12/04 09:22:59;;;;;;;;;;;;;;;;;;5124627;27;19963;-59
2023/12/04 09:25:25;;;;;;;;;;;;;;;;;;5127921;27;20450;-61
2023/12/04 09:27:52;;;;;;;;;;;;;;;;;;5133602;27;20030;-62
2023/12/04 09:30:18;;;;;;;;;;;;;;;;;;5132584;27;20018;-60
2023/12/04 09:32:46;;;;;;;;;;;;;;;;;;5132929;27;20006;-61
2023/12/04 09:35:13;;;;;;;;;;;;;;;;;;5133136;27;19923;-61
2023/12/04 09:37:39;;;;;;;;;;;;;;;;;;5129267;27;19965;-61
2023/12/04 09:40:08;;;;;;;;;;;;;;;;;;5132904;27;20014;-62
2023/12/04 09:42:35;;;;;;;;;;;;;;;;;;5129455;27;19931;-60
2023/12/04 09:45:02;;;;;;;;;;;;;;;;;;5116558;27;20270;-60
2023/12/04 09:47:29;;;;;;;;;;;;;;;;;;5127533;27;19927;-62
2023/12/04 09:49:57;;;;;;;;;;;;;;;;;;5131133;27;20022;-61
2023/12/04 09:52:23;;;;;;;;;;;;;;;;;;5132962;27;19959;-61
2023/12/04 09:54:51;;;;;;;;;;;;;;;;;;5129641;27;20353;-61
2023/12/04 09:57:17;;;;;;;;;;;;;;;;;;5119851;27;20022;-60
2023/12/04 09:59:45;;;;;;;;;;;;;;;;;;5118624;27;20018;-61
2023/12/04 10:02:12;;;;;;;;;;;;;;;;;;5117971;27;20011;-62
2023/12/04 10:04:38;;;;;;;;;;;;;;;;;;5118010;27;19968;-60
2023/12/04 10:07:06;;;;;;;;;;;;;;;;;;5130721;27;19930;-60
2023/12/04 10:09:32;;;;;;;;;;;;;;;;;;5122034;27;19924;-60
2023/12/04 10:11:59;;;;;;;;;;;;;;;;;;5119800;27;19928;-60
2023/12/04 10:14:26;;;;;;;;;;;;;;;;;;5120558;27;20391;-59
2023/12/04 10:16:53;;;;;;;;;;;;;;;;;;5118542;27;19930;-60
2023/12/04 10:19:21;;;;;;;;;;;;;;;;;;5122191;27;19923;-60
2023/12/04 10:21:48;;;;;;;;;;;;;;;;;;5115583;27;19923;-60
2023/12/04 10:24:27;;;;;;;;;;;;;;;;;;5121446;27;20214;-60
2023/12/04 10:26:54;;;;;;;;;;;;;;;;;;5118963;27;19928;-61
2023/12/04 10:29:20;;;;;;;;;;;;;;;;;;5116909;27;19958;-60
2023/12/04 10:31:48;;;;;;;;;;;;;;;;;;5121276;27;19934;-60
2023/12/04 10:34:14;;;;;;;;;;;;;;;;;;5120048;27;20023;-60
2023/12/04 10:36:40;;;;;;;;;;;;;;;;;;5124034;27;20367;-60
2023/12/04 10:39:07;;;;;;;;;;;;;;;;;;5115896;27;19977;-59
2023/12/04 10:41:35;;;;;;;;;;;;;;;;;;5118668;27;19923;-59
2023/12/04 10:44:02;;;;;;;;;;;;;;;;;;5121216;27;19955;-60
2023/12/04 10:46:29;;;;;;;;;;;;;;;;;;5132025;27;19930;-62
2023/12/04 10:48:57;;;;;;;;;;;;;;;;;;5132094;27;19952;-62
2023/12/04 10:51:24;;;;;;;;;;;;;;;;;;5124512;27;20414;-60
2023/12/04 10:53:52;;;;;;;;;;;;;;;;;;5119755;27;20011;-58
2023/12/04 10:56:20;;;;;;;;;;;;;;;;;;5126692;27;19970;-58
2023/12/04 10:58:50;;;;;;;;;;;;;;;;;;5120816;27;19973;-58
2023/12/04 11:01:17;;;;;;;;;;;;;;;;;;5134426;27;19985;-58
2023/12/04 11:03:45;;;;;;;;;;;;;;;;;;5131211;27;20399;-59
2023/12/04 11:06:12;;;;;;;;;;;;;;;;;;5133145;27;19967;-60
2023/12/04 11:08:40;;;;;;;;;;;;;;;;;;5128592;27;20023;-57
2023/12/04 11:11:09;;;;;;;;;;;;;;;;;;5127492;27;19924;-59
2023/12/04 11:13:36;;;;;;;;;;;;;;;;;;5117023;28;19970;-59
2023/12/04 11:16:08;;;;;;;;;;;;;;;;;;5114966;28;20435;-59
2023/12/04 11:18:38;;;;;;;;;;;;;;;;;;5128712;27;20382;-59
2023/12/04 11:21:07;;;;;;;;;;;;;;;;;;5135936;27;19927;-64
2023/12/04 11:23:35;;;;;;;;;;;;;;;;;;5133614;27;21321;-58
2023/12/04 11:26:03;;;;;;;;;;;;;;;;;;5133994;27;20267;-59
2023/12/04 11:28:31;;;;;;;;;;;;;;;;;;5133086;27;19974;-61
2023/12/04 11:30:58;;;;;;;;;;;;;;;;;;5133511;27;19970;-59
2023/12/04 11:33:25;;;;;;;;;;;;;;;;;;5137491;27;19972;-58
2023/12/04 11:35:52;;;;;;;;;;;;;;;;;;5137078;27;19924;-56
2023/12/04 11:38:19;;;;;;;;;;;;;;;;;;5137231;27;19923;-58
2023/12/04 11:40:46;;;;;;;;;;;;;;;;;;5136449;27;19969;-58
2023/12/04 11:43:23;;;;;;;;;;;;;;;;;;5136719;27;19989;-59
2023/12/04 11:45:50;;;;;;;;;;;;;;;;;;5136471;27;19924;-59
2023/12/04 11:48:16;;;;;;;;;;;;;;;;;;5136595;27;19923;-58
2023/12/04 11:50:45;;;;;;;;;;;;;;;;;;5136873;27;19971;-59
2023/12/04 11:53:13;;;;;;;;;;;;;;;;;;5136153;27;19923;-57
2023/12/04 11:55:41;;;;;;;;;;;;;;;;;;5136908;28;19923;-58
2023/12/04 11:58:10;;;;;;;;;;;;;;;;;;5136207;28;19933;-57
2023/12/04 12:00:37;;;;;;;;;;;;;;;;;;5136136;28;19959;-58
2023/12/04 12:03:06;;;;;;;;;;;;;;;;;;5136493;28;19931;-58
2023/12/04 12:05:33;;;;;;;;;;;;;;;;;;5115518;28;19924;-58
2023/12/04 12:08:04;;;;;;;;;;;;;;;;;;5115681;28;19955;-57
2023/12/04 12:10:31;;;;;;;;;;;;;;;;;;5115623;28;19924;-56
2023/12/04 12:12:58;;;;;;;;;;;;;;;;;;5115405;28;20007;-58
2023/12/04 12:15:24;;;;;;;;;;;;;;;;;;5126309;28;20398;-57
2023/12/04 12:17:51;;;;;;;;;;;;;;;;;;5136125;28;20182;-58
2023/12/04 12:20:18;;;;;;;;;;;;;;;;;;5135884;28;19955;-55
2023/12/04 12:22:46;;;;;;;;;;;;;;;;;;5136217;28;19923;-59
2023/12/04 12:25:14;;;;;;;;;;;;;;;;;;5135613;28;19930;-60
2023/12/04 12:27:40;;;;;;;;;;;;;;;;;;5134916;28;19991;-58
2023/12/04 12:30:07;;;;;;;;;;;;;;;;;;5135218;28;19924;-59
2023/12/04 12:32:35;;;;;;;;;;;;;;;;;;5135331;28;19963;-60
2023/12/04 12:35:02;;;;;;;;;;;;;;;;;;5135948;28;20370;-57
2023/12/04 12:37:29;;;;;;;;;;;;;;;;;;5122814;28;19924;-59
2023/12/04 12:39:55;;;;;;;;;;;;;;;;;;5115682;28;19928;-57
2023/12/04 12:42:25;;;;;;;;;;;;;;;;;;5115000;28;19962;-57
2023/12/04 12:44:52;;;;;;;;;;;;;;;;;;5115465;28;19970;-57
2023/12/04 12:47:18;;;;;;;;;;;;;;;;;;5114839;28;20000;-56
2023/12/04 12:49:45;;;;;;;;;;;;;;;;;;5120627;28;19967;-58
2023/12/04 12:52:12;;;;;;;;;;;;;;;;;;5126228;28;19973;-57
2023/12/04 12:54:38;;;;;;;;;;;;;;;;;;5114433;28;20409;-58
2023/12/04 12:57:06;;;;;;;;;;;;;;;;;;5114692;28;20223;-59
2023/12/04 12:59:34;;;;;;;;;;;;;;;;;;5119272;28;20010;-59
2023/12/04 13:02:01;;;;;;;;;;;;;;;;;;5135407;28;19975;-58
2023/12/04 13:04:34;;;;;;;;;;;;;;;;;;5135592;28;19958;-56
2023/12/04 13:07:00;;;;;;;;;;;;;;;;;;5138786;27;19968;-55
2023/12/04 13:09:27;;;;;;;;;;;;;;;;;;5138553;27;20306;-57
2023/12/04 13:11:53;;;;;;;;;;;;;;;;;;5139605;27;20094;-55
2023/12/04 13:14:20;;;;;;;;;;;;;;;;;;5136765;27;19966;-58
2023/12/04 13:16:48;;;;;;;;;;;;;;;;;;5118323;28;19955;-57
2023/12/04 13:19:16;;;;;;;;;;;;;;;;;;5118453;28;19990;-57
2023/12/04 13:21:43;;;;;;;;;;;;;;;;;;5119724;28;19930;-60
2023/12/04 13:24:12;;;;;;;;;;;;;;;;;;5119740;28;19973;-58
2023/12/04 13:26:38;;;;;;;;;;;;;;;;;;5118300;28;19923;-58
2023/12/04 13:29:05;;;;;;;;;;;;;;;;;;5134158;27;19924;-58
2023/12/04 13:31:32;;;;;;;;;;;;;;;;;;5118360;28;19924;-58
2023/12/04 13:34:00;;;;;;;;;;;;;;;;;;5115583;28;19923;-59
2023/12/04 13:36:27;;;;;;;;;;;;;;;;;;5124921;27;19924;-59
2023/12/04 13:38:54;;;;;;;;;;;;;;;;;;5133909;27;19924;-59
2023/12/04 13:44:02;;;;;;;;;;;;;;;;;;5128592;27;20374;-59
2023/12/04 13:46:29;;;;;;;;;;;;;;;;;;5140869;27;19924;-60
2023/12/04 13:48:56;;;;;;;;;;;;;;;;;;5129836;27;19968;-60
2023/12/04 13:51:24;;;;;;;;;;;;;;;;;;5132019;27;19931;-60
2023/12/04 13:53:56;;;;;;;;;;;;;;;;;;5114092;27;19934;-59
2023/12/04 13:56:41;;;;;;;;;;;;;;;;;;5113527;27;19939;-57
2023/12/04 13:59:08;;;;;;;;;;;;;;;;;;5121610;27;19946;-59
2023/12/04 14:01:41;;;;;;;;;;;;;;;;;;5126566;27;19927;-57
2023/12/04 14:04:09;;;;;;;;;;;;;;;;;;5125418;27;19931;-58
2023/12/04 14:06:36;;;;;;;;;;;;;;;;;;5125723;27;19935;-57
2023/12/04 14:09:04;;;;;;;;;;;;;;;;;;5134229;27;19984;-59
2023/12/04 14:11:31;;;;;;;;;;;;;;;;;;5125387;27;19975;-58
2023/12/04 14:13:57;;;;;;;;;;;;;;;;;;5117434;27;20383;-58
2023/12/04 14:16:24;;;;;;;;;;;;;;;;;;5117672;27;19974;-59
2023/12/04 14:18:50;;;;;;;;;;;;;;;;;;5118374;27;19927;-57
2023/12/04 14:21:17;;;;;;;;;;;;;;;;;;5121420;27;19931;-58
2023/12/04 14:23:45;;;;;;;;;;;;;;;;;;5127737;27;20014;-59
2023/12/04 14:26:12;;;;;;;;;;;;;;;;;;5121553;27;20370;-59
2023/12/04 14:28:40;;;;;;;;;;;;;;;;;;5120368;27;19975;-59
2023/12/04 14:31:07;;;;;;;;;;;;;;;;;;5120566;27;19923;-58
2023/12/04 14:33:33;;;;;;;;;;;;;;;;;;5128817;27;19924;-56
2023/12/04 14:36:00;;;;;;;;;;;;;;;;;;5120019;27;19973;-59
2023/12/04 14:38:26;;;;;;;;;;;;;;;;;;5120956;27;20003;-59
2023/12/04 14:40:54;;;;;;;;;;;;;;;;;;5121346;27;19924;-56
2023/12/04 14:43:21;;;;;;;;;;;;;;;;;;5130839;27;19978;-57
2023/12/04 14:45:47;;;;;;;;;;;;;;;;;;5118631;27;20347;-59
2023/12/04 14:48:14;;;;;;;;;;;;;;;;;;5120320;27;19924;-59
2023/12/04 14:50:40;;;;;;;;;;;;;;;;;;5132618;27;19923;-58
2023/12/04 14:53:15;;;;;;;;;;;;;;;;;;5125305;27;20364;-59
2023/12/04 15:02:13;;;;;;;;;;;;;;;;;;5095327;27;20022;-58
2023/12/04 15:10:25;;;;;;;;;;;;;;;;;;5109602;27;20340;-58
2023/12/04 15:16:01;;;;;;;;;;;;;;;;;;5090306;27;19946;-60
2023/12/04 15:18:34;;;;;;;;;;;;;;;;;;5132205;27;19931;-61
2023/12/04 15:21:01;;;;;;;;;;;;;;;;;;5124315;27;19930;-58
2023/12/04 15:23:27;;;;;;;;;;;;;;;;;;5132629;27;19930;-58
2023/12/04 15:25:53;;;;;;;;;;;;;;;;;;5123268;27;19923;-58
2023/12/04 15:28:19;;;;;;;;;;;;;;;;;;5130389;27;20014;-55
2023/12/04 15:30:47;;;;;;;;;;;;;;;;;;5125643;27;20018;-60
2023/12/04 15:33:12;;;;;;;;;;;;;;;;;;5123245;27;20014;-59
2023/12/04 15:35:40;;;;;;;;;;;;;;;;;;5131657;27;20018;-58
2023/12/04 15:38:07;;;;;;;;;;;;;;;;;;5115478;27;19972;-59
2023/12/04 15:40:33;;;;;;;;;;;;;;;;;;5123476;27;19923;-57
2023/12/04 15:42:59;;;;;;;;;;;;;;;;;;5132387;27;20302;-58
2023/12/04 15:45:25;;;;;;;;;;;;;;;;;;5120122;28;19924;-59
2023/12/04 15:47:53;;;;;;;;;;;;;;;;;;5116774;27;19927;-59
2023/12/04 15:50:22;;;;;;;;;;;;;;;;;;5113331;28;20390;-59
2023/12/04 15:52:49;;;;;;;;;;;;;;;;;;5111286;28;19973;-59
2023/12/04 15:55:14;;;;;;;;;;;;;;;;;;5128672;27;19923;-58
2023/12/04 15:57:41;;;;;;;;;;;;;;;;;;5132022;27;19923;-60
2023/12/04 16:00:09;;;;;;;;;;;;;;;;;;5124004;28;19923;-59
2023/12/04 16:02:35;;;;;;;;;;;;;;;;;;5123192;28;19927;-57
2023/12/04 16:05:04;;;;;;;;;;;;;;;;;;5115888;28;20440;-59
2023/12/04 16:07:31;;;;;;;;;;;;;;;;;;5130132;28;20014;-58
2023/12/04 16:09:57;;;;;;;;;;;;;;;;;;5116973;28;19924;-59
2023/12/04 16:12:24;;;;;;;;;;;;;;;;;;5121575;28;20652;-57
2023/12/04 16:14:50;;;;;;;;;;;;;;;;;;5117495;28;19974;-59
2023/12/04 16:17:17;;;;;;;;;;;;;;;;;;5120197;28;19970;-59
2023/12/04 16:19:43;;;;;;;;;;;;;;;;;;5125834;28;20396;-58
2023/12/04 16:22:11;;;;;;;;;;;;;;;;;;5122062;28;20258;-60
2023/12/04 16:24:38;;;;;;;;;;;;;;;;;;5131648;28;19923;-58
2023/12/04 16:27:05;;;;;;;;;;;;;;;;;;5115462;28;19931;-59
2023/12/04 16:29:33;;;;;;;;;;;;;;;;;;5123224;28;19985;-59
2023/12/04 16:32:00;;;;;;;;;;;;;;;;;;5124399;28;19928;-56
2023/12/04 16:34:26;;;;;;;;;;;;;;;;;;5114444;28;20019;-60
2023/12/04 16:36:53;;;;;;;;;;;;;;;;;;5129747;28;19928;-59
2023/12/04 16:39:20;;;;;;;;;;;;;;;;;;5131393;27;20352;-59
2023/12/04 16:41:47;;;;;;;;;;;;;;;;;;5129502;27;20340;-59
2023/12/04 16:44:17;;;;;;;;;;;;;;;;;;5124509;27;20014;-58
2023/12/04 16:46:43;;;;;;;;;;;;;;;;;;5122918;27;19928;-60
2023/12/04 16:49:10;;;;;;;;;;;;;;;;;;5148228;27;19927;-57
2023/12/04 16:51:36;;;;;;;;;;;;;;;;;;5129106;27;20325;-58
2023/12/04 16:54:03;;;;;;;;;;;;;;;;;;5122950;27;20019;-59
2023/12/04 16:56:31;;;;;;;;;;;;;;;;;;5132355;27;19931;-59
2023/12/04 16:58:58;;;;;;;;;;;;;;;;;;5127939;27;20324;-59
2023/12/04 17:01:25;;;;;;;;;;;;;;;;;;5124578;27;20007;-59
2023/12/04 17:03:52;;;;;;;;;;;;;;;;;;5120029;27;19931;-58